Time;durP1;ratioP1;P1;durP2;ratioP2;P2;SDS_P1;SDS_P2;PMS_P1;PMS_P2;Temp;Humidity;BMP_temperature;BMP_pressure;BME280_temperature;BME280_humidity;BME280_pressure;Samples;Min_cycle;Max_cycle;Signal;HPM_P1;HPM_P2
2021/01/10 05:01:13;;;;;;;20.03;14.40;;;-1.60;99.90;;;;;;5695112;23;20860;-65
2021/01/10 05:03:41;;;;;;;20.73;14.20;;;-1.40;99.90;;;;;;4975526;28;20457;-66
2021/01/10 05:06:08;;;;;;;18.47;14.40;;;-1.30;99.90;;;;;;4976405;28;20483;-64
2021/01/10 05:08:35;;;;;;;19.23;14.37;;;-1.20;99.90;;;;;;4977808;28;20459;-66
2021/01/10 05:11:01;;;;;;;20.97;15.13;;;-1.20;99.90;;;;;;4975674;28;20478;-65
2021/01/10 05:13:27;;;;;;;20.53;14.37;;;-1.10;99.90;;;;;;4975235;28;20454;-65
2021/01/10 05:15:55;;;;;;;18.47;12.93;;;-1.00;99.90;;;;;;4975145;28;20453;-65
2021/01/10 05:18:22;;;;;;;17.33;14.00;;;-0.90;99.90;;;;;;4974869;28;20505;-65
2021/01/10 05:20:53;;;;;;;19.03;13.70;;;-0.90;99.90;;;;;;4975176;28;20890;-65
2021/01/10 05:23:23;;;;;;;20.07;15.07;;;-0.90;99.90;;;;;;4975085;28;20525;-65
2021/01/10 05:26:03;;;;;;;16.10;13.70;;;-0.80;99.90;;;;;;4974813;28;20965;-65
2021/01/10 05:28:30;;;;;;;18.90;14.50;;;-0.70;99.90;;;;;;4975266;28;20482;-65
2021/01/10 05:30:56;;;;;;;24.80;14.00;;;-0.60;99.90;;;;;;4974883;28;20475;-64
2021/01/10 05:33:23;;;;;;;18.80;15.60;;;-0.60;99.90;;;;;;4974660;28;20458;-65
2021/01/10 05:35:51;;;;;;;23.80;16.50;;;-0.60;99.90;;;;;;4974805;28;20454;-64
2021/01/10 05:38:26;;;;;;;23.97;16.43;;;-0.50;99.90;;;;;;4974806;28;20459;-64
2021/01/10 05:40:54;;;;;;;21.00;16.00;;;-0.60;99.90;;;;;;4974785;28;20577;-65
2021/01/10 05:43:20;;;;;;;20.77;14.53;;;-0.60;99.90;;;;;;4975345;28;20546;-65
2021/01/10 05:45:46;;;;;;;20.93;14.80;;;-0.60;99.90;;;;;;4974753;28;20479;-64
2021/01/10 05:48:14;;;;;;;23.90;15.77;;;-0.50;99.90;;;;;;4974707;28;20454;-64
2021/01/10 05:50:43;;;;;;;23.43;17.20;;;-0.50;99.90;;;;;;4974324;28;20475;-64
2021/01/10 05:53:17;;;;;;;20.60;15.60;;;-0.50;99.90;;;;;;4974711;28;20454;-64
2021/01/10 05:55:58;;;;;;;22.37;16.50;;;-0.50;99.90;;;;;;4974704;28;20451;-64
2021/01/10 05:58:26;;;;;;;22.27;15.27;;;-0.40;99.90;;;;;;4974525;28;20482;-64
2021/01/10 06:00:52;;;;;;;21.07;15.37;;;-0.40;99.90;;;;;;4974159;28;20487;-64
2021/01/10 06:03:21;;;;;;;22.30;16.20;;;-0.40;99.90;;;;;;4974965;28;20466;-65
2021/01/10 06:05:56;;;;;;;22.43;16.10;;;-0.50;99.90;;;;;;4975397;28;20537;-65
2021/01/10 06:08:30;;;;;;;22.07;17.40;;;-0.40;99.90;;;;;;4978636;28;20880;-64
2021/01/10 06:11:19;;;;;;;25.13;17.10;;;-0.40;99.90;;;;;;4978499;28;20474;-65
2021/01/10 06:13:54;;;;;;;23.37;15.97;;;-0.50;99.90;;;;;;4978510;28;20534;-64
2021/01/10 06:16:22;;;;;;;18.60;15.17;;;-0.50;99.90;;;;;;4978451;28;20445;-64
2021/01/10 06:18:52;;;;;;;22.30;15.60;;;-0.60;99.90;;;;;;4978385;28;20454;-64
2021/01/10 06:21:21;;;;;;;23.47;17.10;;;-0.60;99.90;;;;;;4978273;28;20481;-65
2021/01/10 06:23:50;;;;;;;21.70;15.03;;;-0.60;99.90;;;;;;4978233;28;20462;-65
2021/01/10 06:26:22;;;;;;;24.10;16.67;;;-0.50;99.90;;;;;;4978259;28;20486;-64
2021/01/10 06:28:56;;;;;;;20.47;15.77;;;-0.50;99.90;;;;;;4977951;28;20461;-65
2021/01/10 06:31:31;;;;;;;23.77;17.40;;;-0.50;99.90;;;;;;4978248;28;20478;-65
2021/01/10 06:34:02;;;;;;;24.63;16.87;;;-0.70;99.90;;;;;;4977969;28;20443;-65
2021/01/10 06:36:32;;;;;;;22.73;16.17;;;-0.60;99.90;;;;;;4978994;28;20435;-65
2021/01/10 06:39:01;;;;;;;22.40;15.93;;;-0.50;99.90;;;;;;4978005;28;20462;-66
2021/01/10 06:42:12;;;;;;;23.67;16.13;;;-0.60;99.90;;;;;;4978048;28;20482;-65
2021/01/10 06:44:40;;;;;;;22.60;16.23;;;-0.60;99.90;;;;;;4977621;28;20577;-65
2021/01/10 06:47:14;;;;;;;21.90;16.67;;;-0.50;99.90;;;;;;4978411;28;20482;-65
2021/01/10 06:49:41;;;;;;;24.57;16.70;;;-0.40;99.90;;;;;;4978101;28;20434;-64
2021/01/10 06:52:10;;;;;;;21.77;16.37;;;-0.40;99.90;;;;;;4977680;28;20474;-64
2021/01/10 06:54:41;;;;;;;19.70;14.50;;;-0.40;99.90;;;;;;4977850;28;20454;-63
2021/01/10 06:57:07;;;;;;;23.20;16.27;;;-0.40;99.90;;;;;;4977917;28;20855;-64
2021/01/10 06:59:55;;;;;;;19.70;14.63;;;-0.30;99.90;;;;;;4977629;28;20508;-65
2021/01/10 07:02:21;;;;;;;20.30;14.77;;;-0.20;99.90;;;;;;4977060;28;20486;-64
2021/01/10 07:04:59;;;;;;;17.67;13.87;;;-0.30;99.90;;;;;;4977917;28;20514;-66
2021/01/10 07:07:42;;;;;;;21.30;15.77;;;-0.20;99.90;;;;;;4977392;28;20853;-64
2021/01/10 07:10:11;;;;;;;17.83;13.67;;;-0.20;99.90;;;;;;4977914;28;20449;-66
2021/01/10 07:12:37;;;;;;;18.13;13.97;;;-0.20;99.90;;;;;;4978537;28;20455;-65
2021/01/10 07:15:26;;;;;;;19.23;14.77;;;-0.20;99.90;;;;;;4978643;28;20450;-64
2021/01/10 07:18:09;;;;;;;17.43;13.20;;;-0.10;99.90;;;;;;4979327;28;20474;-65
2021/01/10 07:20:43;;;;;;;17.70;13.40;;;-0.10;99.90;;;;;;4980543;28;20476;-65
2021/01/10 07:23:31;;;;;;;16.60;13.23;;;-0.20;99.90;;;;;;4978479;28;20449;-64
2021/01/10 07:25:58;;;;;;;16.47;13.07;;;-0.20;99.90;;;;;;4983048;28;20467;-66
2021/01/10 07:28:41;;;;;;;16.23;12.50;;;-0.10;99.90;;;;;;4980420;28;20457;-65
2021/01/10 07:31:13;;;;;;;18.30;13.50;;;-0.10;99.90;;;;;;4977027;28;20496;-65
2021/01/10 07:33:39;;;;;;;23.53;13.30;;;-0.10;99.90;;;;;;4977076;28;20439;-65
2021/01/10 07:36:06;;;;;;;18.73;13.33;;;-0.20;99.90;;;;;;4976951;28;20925;-65
2021/01/10 07:38:35;;;;;;;20.63;13.37;;;-0.20;99.90;;;;;;4976644;28;20970;-64
2021/01/10 07:41:23;;;;;;;18.20;13.17;;;-0.20;99.90;;;;;;4977643;28;20478;-65
2021/01/10 07:43:50;;;;;;;16.30;12.87;;;-0.20;99.90;;;;;;4977847;28;20447;-63
2021/01/10 07:47:01;;;;;;;20.00;14.00;;;-0.30;99.90;;;;;;4977601;28;20478;-63
2021/01/10 07:49:33;;;;;;;19.30;13.50;;;-0.30;99.90;;;;;;4977399;28;20481;-63
2021/01/10 07:52:00;;;;;;;17.03;12.90;;;-0.20;99.90;;;;;;4977519;28;20474;-64
2021/01/10 07:54:50;;;;;;;19.53;13.60;;;-0.20;99.90;;;;;;4977315;28;20455;-63
2021/01/10 07:57:33;;;;;;;17.70;13.33;;;-0.30;99.90;;;;;;4969028;28;20818;-63
2021/01/10 08:00:17;;;;;;;17.57;13.87;;;-0.20;99.90;;;;;;4977095;28;20446;-64
2021/01/10 08:02:54;;;;;;;20.43;14.47;;;-0.10;99.90;;;;;;4976727;28;20446;-64
2021/01/10 08:05:24;;;;;;;19.02;15.00;;;-0.10;99.90;;;;;;4976350;28;20450;-63
2021/01/10 08:07:53;;;;;;;17.33;13.90;;;-0.10;99.90;;;;;;4976503;28;20199;-64
2021/01/10 08:10:22;;;;;;;16.33;13.10;;;-0.10;99.90;;;;;;4976409;28;20860;-63
2021/01/10 08:12:48;;;;;;;15.87;12.90;;;0.10;99.90;;;;;;4976487;28;20470;-63
2021/01/10 08:15:15;;;;;;;15.27;12.43;;;0.10;99.90;;;;;;4976295;28;20438;-63
2021/01/10 08:17:41;;;;;;;16.10;13.27;;;0.20;99.90;;;;;;4976956;28;20802;-63
2021/01/10 08:20:09;;;;;;;16.70;12.33;;;0.30;99.90;;;;;;4976153;28;20821;-63
2021/01/10 08:22:37;;;;;;;17.87;12.70;;;0.40;99.90;;;;;;4976552;28;20482;-63
2021/01/10 08:25:05;;;;;;;16.30;13.20;;;0.40;99.90;;;;;;4975671;28;20887;-63
2021/01/10 08:27:32;;;;;;;15.83;12.53;;;0.50;99.90;;;;;;4975774;28;20458;-63
2021/01/10 08:29:58;;;;;;;16.60;12.97;;;0.50;99.90;;;;;;4975610;28;20509;-64
2021/01/10 08:32:26;;;;;;;18.23;12.20;;;0.50;99.90;;;;;;4975953;28;20537;-63
2021/01/10 08:34:54;;;;;;;17.27;12.60;;;0.40;99.90;;;;;;4976218;28;20457;-64
2021/01/10 08:37:24;;;;;;;16.80;12.80;;;0.40;99.90;;;;;;4975779;28;20497;-63
2021/01/10 08:39:58;;;;;;;17.77;13.20;;;0.60;99.90;;;;;;4975758;28;20490;-64
2021/01/10 08:42:24;;;;;;;23.33;15.40;;;0.60;99.90;;;;;;4975726;28;20884;-64
2021/01/10 08:44:51;;;;;;;18.30;13.77;;;0.50;99.90;;;;;;4975549;28;20984;-64
2021/01/10 08:47:17;;;;;;;18.30;13.70;;;0.60;99.90;;;;;;4975772;28;20513;-64
2021/01/10 08:49:44;;;;;;;14.53;12.97;;;0.70;99.90;;;;;;4975551;28;20902;-63
2021/01/10 08:52:11;;;;;;;14.50;11.80;;;0.70;99.90;;;;;;4975533;28;20475;-63
2021/01/10 08:54:37;;;;;;;15.53;12.33;;;0.50;99.90;;;;;;4975516;28;20458;-63
2021/01/10 08:57:04;;;;;;;19.50;13.63;;;0.40;99.90;;;;;;4975518;28;20494;-62
2021/01/10 08:59:36;;;;;;;17.00;13.40;;;0.50;99.90;;;;;;4975954;28;20465;-62
2021/01/10 09:02:07;;;;;;;16.40;12.30;;;0.70;99.90;;;;;;4975140;28;20482;-63
2021/01/10 09:04:39;;;;;;;17.50;13.20;;;1.10;99.90;;;;;;4975765;28;20537;-63
2021/01/10 09:07:13;;;;;;;15.60;12.70;;;1.50;99.90;;;;;;4975473;28;20478;-63
2021/01/10 09:09:45;;;;;;;14.83;12.40;;;1.80;99.90;;;;;;4975357;28;20533;-63
2021/01/10 09:12:20;;;;;;;23.47;13.70;;;2.10;99.90;;;;;;4975275;28;20475;-62
2021/01/10 09:14:52;;;;;;;14.83;13.10;;;2.60;99.90;;;;;;4975350;28;20460;-63
2021/01/10 09:17:25;;;;;;;16.17;11.17;;;3.40;99.90;;;;;;4975198;28;20450;-63
2021/01/10 09:19:54;;;;;;;13.10;11.70;;;4.10;99.90;;;;;;4975789;28;20471;-63
2021/01/10 09:22:26;;;;;;;13.57;11.93;;;4.30;99.90;;;;;;4975088;28;20452;-62
2021/01/10 09:24:53;;;;;;;14.10;12.60;;;4.50;99.90;;;;;;4975063;28;20494;-64
2021/01/10 09:27:19;;;;;;;12.73;11.40;;;4.30;99.90;;;;;;4974792;28;20459;-63
2021/01/10 09:29:45;;;;;;;12.97;11.57;;;3.90;99.90;;;;;;4975187;28;20443;-63
2021/01/10 09:32:21;;;;;;;12.93;11.63;;;3.50;99.90;;;;;;4974684;28;20981;-64
2021/01/10 09:34:55;;;;;;;14.73;11.40;;;3.50;99.90;;;;;;4975249;28;20450;-62
2021/01/10 09:37:27;;;;;;;14.53;12.07;;;3.10;99.90;;;;;;4975087;28;20698;-64
2021/01/10 09:39:53;;;;;;;16.07;13.10;;;2.80;99.90;;;;;;4974937;28;20444;-63
2021/01/10 09:42:20;;;;;;;13.73;11.83;;;2.30;99.90;;;;;;4975022;28;20873;-64
2021/01/10 09:44:53;;;;;;;15.60;12.23;;;2.00;99.90;;;;;;4975054;28;20461;-63
2021/01/10 09:47:34;;;;;;;15.97;13.23;;;1.80;99.90;;;;;;4975079;28;20462;-63
2021/01/10 09:50:00;;;;;;;12.87;10.87;;;1.80;99.90;;;;;;4977543;28;20475;-64
2021/01/10 09:52:26;;;;;;;14.13;11.43;;;1.60;99.90;;;;;;4978170;28;20474;-63
2021/01/10 09:54:57;;;;;;;12.43;11.13;;;1.70;99.90;;;;;;4975238;28;21169;-64
2021/01/10 09:57:23;;;;;;;13.20;10.83;;;1.80;99.90;;;;;;4975140;28;20525;-62
2021/01/10 10:00:03;;;;;;;11.77;10.20;;;1.80;99.90;;;;;;4974985;28;20446;-63
2021/01/10 10:02:36;;;;;;;11.37;9.73;;;1.90;99.90;;;;;;4974450;28;20486;-65
2021/01/10 10:05:10;;;;;;;13.23;11.50;;;2.00;99.90;;;;;;4974519;28;20470;-63
2021/01/10 10:07:37;;;;;;;12.43;10.03;;;2.20;99.90;;;;;;4974588;28;20458;-63
2021/01/10 10:10:06;;;;;;;14.80;11.17;;;2.30;99.90;;;;;;4974575;28;20459;-64
2021/01/10 10:12:33;;;;;;;13.63;11.63;;;2.90;99.90;;;;;;4974908;28;20474;-63
2021/01/10 10:15:00;;;;;;;13.00;11.60;;;3.30;99.90;;;;;;4974736;28;20455;-64
2021/01/10 10:17:29;;;;;;;13.53;10.70;;;3.40;99.90;;;;;;4974680;28;20455;-64
2021/01/10 10:19:56;;;;;;;13.00;10.97;;;3.40;99.90;;;;;;4974492;28;20462;-62
2021/01/10 10:22:28;;;;;;;12.67;10.00;;;3.00;99.90;;;;;;4974443;28;20474;-63
2021/01/10 10:24:55;;;;;;;13.20;11.23;;;2.90;99.90;;;;;;4974555;28;20443;-64
2021/01/10 10:27:21;;;;;;;13.17;10.70;;;2.60;99.90;;;;;;4974662;28;20461;-65
2021/01/10 10:29:48;;;;;;;13.97;11.67;;;2.70;99.90;;;;;;4974980;28;20461;-64
2021/01/10 10:32:14;;;;;;;13.43;11.40;;;2.50;99.90;;;;;;4974758;28;20489;-63
2021/01/10 10:34:40;;;;;;;12.30;11.00;;;2.40;99.90;;;;;;4974641;28;20466;-64
2021/01/10 10:37:07;;;;;;;12.67;11.37;;;2.40;99.90;;;;;;4975015;28;20455;-64
2021/01/10 10:39:35;;;;;;;11.93;10.70;;;2.50;99.90;;;;;;4975256;28;20459;-65
2021/01/10 10:42:01;;;;;;;14.97;10.53;;;3.70;99.90;;;;;;4975604;28;20482;-68
2021/01/10 10:44:27;;;;;;;10.80;9.70;;;4.90;99.90;;;;;;4975447;28;20454;-65
2021/01/10 10:46:54;;;;;;;9.93;8.83;;;6.40;99.90;;;;;;4974646;28;20509;-63
2021/01/10 10:49:20;;;;;;;10.90;9.80;;;7.00;99.90;;;;;;4974590;28;20462;-64
2021/01/10 10:51:46;;;;;;;10.10;9.10;;;7.40;99.90;;;;;;4974615;28;20483;-64
2021/01/10 10:54:14;;;;;;;11.03;9.93;;;8.70;99.90;;;;;;4977816;28;20450;-64
2021/01/10 10:56:41;;;;;;;10.93;9.83;;;9.50;99.90;;;;;;4977581;28;20455;-63
2021/01/10 10:59:08;;;;;;;11.43;10.40;;;10.00;97.20;;;;;;4978023;28;20805;-64
2021/01/10 11:01:38;;;;;;;10.93;9.83;;;9.60;96.80;;;;;;4977546;28;20513;-65
2021/01/10 11:04:05;;;;;;;9.80;8.90;;;9.00;97.60;;;;;;4977796;28;20517;-65
2021/01/10 11:06:31;;;;;;;10.50;9.07;;;8.20;98.90;;;;;;4977649;28;20533;-65
2021/01/10 11:08:57;;;;;;;9.10;8.20;;;7.10;99.90;;;;;;4977672;28;20454;-63
2021/01/10 11:11:33;;;;;;;11.00;10.00;;;6.60;99.90;;;;;;4977523;28;20475;-63
2021/01/10 11:14:00;;;;;;;10.50;9.03;;;6.00;99.90;;;;;;5016355;23;20694;-64
2021/01/10 11:16:29;;;;;;;9.93;8.93;;;5.20;99.90;;;;;;4978846;28;20439;-65
2021/01/10 11:18:55;;;;;;;10.63;9.53;;;4.90;99.90;;;;;;4977719;28;20502;-64
2021/01/10 11:21:26;;;;;;;11.23;9.60;;;4.50;99.90;;;;;;4977341;28;20614;-65
2021/01/10 11:23:53;;;;;;;9.23;8.23;;;4.30;99.90;;;;;;4978264;28;20435;-64
2021/01/10 11:26:19;;;;;;;9.73;8.73;;;4.30;99.90;;;;;;4977342;28;20483;-64
2021/01/10 11:28:46;;;;;;;9.67;8.67;;;4.20;99.90;;;;;;4977642;28;20459;-63
2021/01/10 11:31:12;;;;;;;9.93;8.80;;;4.00;99.90;;;;;;4978231;28;20575;-64
2021/01/10 11:33:39;;;;;;;9.43;8.40;;;4.00;99.90;;;;;;4978998;28;20796;-64
2021/01/10 11:36:06;;;;;;;9.37;8.40;;;4.00;99.90;;;;;;4977390;28;20938;-64
2021/01/10 11:38:32;;;;;;;8.87;7.77;;;4.10;99.90;;;;;;4977385;28;20458;-63
2021/01/10 11:40:58;;;;;;;9.33;8.33;;;4.00;99.90;;;;;;4977374;28;20542;-64
2021/01/10 11:43:24;;;;;;;11.13;9.27;;;4.00;99.90;;;;;;4977331;28;20447;-64
2021/01/10 11:45:51;;;;;;;8.33;7.43;;;3.90;99.90;;;;;;4977177;28;20478;-65
2021/01/10 11:48:18;;;;;;;9.00;8.10;;;4.10;99.90;;;;;;4977213;28;20458;-64
2021/01/10 11:50:44;;;;;;;10.03;8.40;;;4.20;99.90;;;;;;4977954;28;20443;-66
2021/01/10 11:53:10;;;;;;;8.67;7.77;;;4.10;99.90;;;;;;4977006;28;20459;-64
2021/01/10 11:55:36;;;;;;;9.23;8.33;;;4.60;99.90;;;;;;4977345;28;20479;-64
2021/01/10 11:58:02;;;;;;;9.07;8.17;;;4.60;99.90;;;;;;4977202;28;20455;-65
2021/01/10 12:00:29;;;;;;;8.20;7.40;;;4.40;99.90;;;;;;4977184;28;20451;-65
2021/01/10 12:02:56;;;;;;;12.57;8.13;;;4.10;99.90;;;;;;4977204;28;20513;-64
2021/01/10 12:05:22;;;;;;;9.30;8.33;;;4.10;99.90;;;;;;4977113;28;20486;-65
2021/01/10 12:07:48;;;;;;;8.70;7.80;;;4.10;99.90;;;;;;4976999;28;20980;-63
2021/01/10 12:10:14;;;;;;;8.37;7.57;;;4.00;99.90;;;;;;4977331;28;20877;-65
2021/01/10 12:12:40;;;;;;;7.17;6.57;;;3.80;99.90;;;;;;4977280;28;20454;-63
2021/01/10 12:15:07;;;;;;;7.73;7.03;;;3.80;99.90;;;;;;4978787;28;20482;-63
2021/01/10 12:17:34;;;;;;;9.87;8.40;;;3.80;99.90;;;;;;4976796;28;20469;-65
2021/01/10 12:20:01;;;;;;;7.93;7.23;;;3.70;99.90;;;;;;4976452;28;20462;-63
2021/01/10 12:22:27;;;;;;;8.03;6.60;;;3.80;99.90;;;;;;4976971;28;20795;-64
2021/01/10 12:24:53;;;;;;;10.13;8.17;;;3.70;99.90;;;;;;4976471;28;20474;-63
2021/01/10 12:27:20;;;;;;;8.50;7.70;;;3.70;99.90;;;;;;4977093;28;20459;-64
2021/01/10 12:29:46;;;;;;;8.77;7.87;;;3.90;99.90;;;;;;4977368;28;20459;-65
2021/01/10 12:32:12;;;;;;;7.87;7.03;;;3.90;99.90;;;;;;4976775;28;20458;-64
2021/01/10 12:34:38;;;;;;;7.43;6.73;;;3.90;99.90;;;;;;4976710;28;20870;-65
2021/01/10 12:37:05;;;;;;;8.13;7.23;;;3.80;99.90;;;;;;4977028;28;20459;-66
2021/01/10 12:39:31;;;;;;;8.17;7.37;;;3.70;99.90;;;;;;4976716;28;20806;-65
2021/01/10 12:41:58;;;;;;;9.03;8.20;;;3.50;99.90;;;;;;4976604;28;20493;-64
2021/01/10 12:44:24;;;;;;;8.93;8.00;;;3.40;99.90;;;;;;4977218;28;20481;-65
2021/01/10 12:46:50;;;;;;;8.47;7.17;;;3.40;99.90;;;;;;4976224;28;20478;-66
2021/01/10 12:49:16;;;;;;;7.23;6.37;;;3.50;99.90;;;;;;4976118;28;20922;-64
2021/01/10 12:51:45;;;;;;;7.87;7.07;;;3.70;99.90;;;;;;4975672;28;20837;-64
2021/01/10 12:54:12;;;;;;;8.67;7.40;;;3.90;99.90;;;;;;4975723;28;20482;-65
2021/01/10 12:56:38;;;;;;;8.20;7.40;;;4.60;99.90;;;;;;4976021;28;20450;-66
2021/01/10 12:59:04;;;;;;;8.00;7.20;;;4.80;99.90;;;;;;4975862;28;20454;-66
2021/01/10 13:01:34;;;;;;;8.70;7.87;;;5.10;99.90;;;;;;4975511;28;20465;-66
2021/01/10 13:04:00;;;;;;;9.33;8.40;;;5.40;99.90;;;;;;4975020;28;20490;-66
2021/01/10 13:06:26;;;;;;;9.00;8.10;;;5.30;99.90;;;;;;4974942;28;20479;-66
2021/01/10 13:08:52;;;;;;;7.97;7.17;;;5.30;99.90;;;;;;4974706;28;20957;-66
2021/01/10 13:11:23;;;;;;;9.27;8.27;;;5.60;99.90;;;;;;4974919;28;20462;-66
2021/01/10 13:13:51;;;;;;;8.63;7.83;;;5.80;99.90;;;;;;4974874;28;20454;-66
2021/01/10 13:16:17;;;;;;;8.13;7.03;;;6.00;99.90;;;;;;4975297;28;20439;-67
2021/01/10 13:18:43;;;;;;;7.63;6.93;;;5.30;99.90;;;;;;4974951;28;20454;-67
2021/01/10 13:21:09;;;;;;;8.07;6.93;;;5.60;99.90;;;;;;4974590;28;20953;-66
2021/01/10 13:23:36;;;;;;;7.67;6.87;;;5.80;99.90;;;;;;4974933;28;20462;-66
2021/01/10 13:26:02;;;;;;;7.77;6.97;;;5.70;99.90;;;;;;4975500;28;20483;-65
2021/01/10 13:28:29;;;;;;;8.40;7.60;;;5.60;99.90;;;;;;4975517;28;20458;-67
2021/01/10 13:30:58;;;;;;;7.00;6.40;;;6.10;99.90;;;;;;4974854;28;20458;-64
2021/01/10 13:33:25;;;;;;;7.77;7.07;;;6.30;99.90;;;;;;4974482;28;20920;-64
2021/01/10 13:35:51;;;;;;;9.00;7.63;;;6.30;99.90;;;;;;4974612;28;20471;-65
2021/01/10 13:38:17;;;;;;;9.30;8.40;;;6.00;99.90;;;;;;4975532;28;20466;-64
2021/01/10 13:40:43;;;;;;;8.80;7.90;;;5.80;99.90;;;;;;4976222;28;20562;-65
2021/01/10 13:43:09;;;;;;;9.20;8.30;;;5.60;99.90;;;;;;4975977;28;20459;-64
2021/01/10 13:45:36;;;;;;;9.87;8.87;;;5.40;99.90;;;;;;4974744;28;20489;-64
2021/01/10 13:48:03;;;;;;;9.50;8.57;;;5.00;99.90;;;;;;4974311;28;20442;-64
2021/01/10 13:50:29;;;;;;;9.97;8.23;;;5.00;99.90;;;;;;4974450;28;20533;-64
2021/01/10 13:52:55;;;;;;;8.50;7.70;;;4.70;99.90;;;;;;4974435;28;20465;-65
2021/01/10 13:55:21;;;;;;;8.10;7.30;;;4.70;99.90;;;;;;4974492;28;20475;-64
2021/01/10 13:57:49;;;;;;;9.13;8.07;;;4.40;99.90;;;;;;4974729;28;20914;-63
2021/01/10 14:00:17;;;;;;;8.30;7.50;;;4.30;99.90;;;;;;4974130;28;21000;-65
2021/01/10 14:02:44;;;;;;;9.77;7.70;;;4.00;99.90;;;;;;4974368;28;20461;-63
2021/01/10 14:05:12;;;;;;;9.47;7.67;;;4.00;99.90;;;;;;4974483;28;20478;-63
2021/01/10 14:07:38;;;;;;;11.10;7.67;;;3.80;99.90;;;;;;4974381;28;20451;-63
2021/01/10 14:10:05;;;;;;;10.17;7.87;;;3.60;99.90;;;;;;4974011;28;21012;-63
2021/01/10 14:12:32;;;;;;;9.50;8.60;;;3.50;99.90;;;;;;4974394;28;20941;-64
2021/01/10 14:14:58;;;;;;;9.97;8.53;;;3.40;99.90;;;;;;4974052;28;20489;-64
2021/01/10 14:17:24;;;;;;;10.93;9.23;;;3.40;99.90;;;;;;4974275;28;20450;-64
2021/01/10 14:19:51;;;;;;;13.03;9.77;;;3.40;99.90;;;;;;4974211;28;20821;-63
2021/01/10 14:22:17;;;;;;;12.03;9.93;;;3.30;99.90;;;;;;4974220;28;20454;-63
2021/01/10 14:24:43;;;;;;;12.97;9.70;;;3.10;99.90;;;;;;4974471;28;20477;-66
2021/01/10 14:27:10;;;;;;;17.37;12.00;;;3.20;99.90;;;;;;4974406;28;20493;-64
2021/01/10 14:29:36;;;;;;;17.03;12.13;;;3.40;99.90;;;;;;4977909;28;20195;-64
2021/01/10 14:32:02;;;;;;;15.30;12.37;;;3.50;99.90;;;;;;4977768;28;20465;-64
2021/01/10 14:34:29;;;;;;;12.80;10.50;;;3.60;99.90;;;;;;4977884;28;20466;-63
2021/01/10 14:36:57;;;;;;;10.40;9.03;;;3.70;99.90;;;;;;4977704;28;20937;-64
2021/01/10 14:39:24;;;;;;;9.80;8.80;;;3.70;99.90;;;;;;4977669;28;20960;-64
2021/01/10 14:41:50;;;;;;;10.60;9.23;;;3.80;99.90;;;;;;4977924;28;20468;-64
2021/01/10 14:44:17;;;;;;;9.93;8.93;;;3.80;99.90;;;;;;4977669;28;20455;-64
2021/01/10 14:46:43;;;;;;;10.90;9.17;;;3.80;99.90;;;;;;4977490;28;20509;-64
2021/01/10 14:49:10;;;;;;;11.07;9.50;;;3.90;99.90;;;;;;4977523;28;20454;-64
2021/01/10 14:51:37;;;;;;;9.80;8.80;;;4.10;99.90;;;;;;4977114;28;21029;-64
2021/01/10 14:54:06;;;;;;;10.00;9.00;;;4.30;99.90;;;;;;4977709;28;20253;-64
2021/01/10 14:56:34;;;;;;;13.37;10.47;;;4.10;99.90;;;;;;4977098;28;20454;-65
2021/01/10 14:59:01;;;;;;;10.20;8.97;;;4.10;99.90;;;;;;4976885;28;20964;-66
2021/01/10 15:01:27;;;;;;;12.40;10.33;;;4.10;99.90;;;;;;4977207;28;20493;-66
2021/01/10 15:03:55;;;;;;;12.70;10.50;;;4.00;99.90;;;;;;4977201;28;20541;-66
2021/01/10 15:06:22;;;;;;;10.33;9.23;;;3.70;99.90;;;;;;4977407;28;20469;-66
2021/01/10 15:08:51;;;;;;;11.97;10.43;;;3.70;99.90;;;;;;4977270;28;20454;-66
2021/01/10 15:11:20;;;;;;;11.67;9.43;;;3.50;99.90;;;;;;4977364;28;21030;-66
2021/01/10 15:13:46;;;;;;;12.53;10.43;;;3.40;99.90;;;;;;4976972;28;20455;-66
2021/01/10 15:16:13;;;;;;;12.00;10.20;;;3.30;99.90;;;;;;4980040;28;20451;-67
2021/01/10 15:18:39;;;;;;;16.30;13.10;;;3.20;99.90;;;;;;4981254;28;20844;-64
2021/01/10 15:21:06;;;;;;;13.00;11.60;;;3.20;99.90;;;;;;4977006;28;20481;-64
2021/01/10 15:23:32;;;;;;;18.75;13.90;;;3.30;99.90;;;;;;4976990;28;20455;-64
2021/01/10 15:25:58;;;;;;;15.13;12.03;;;3.30;99.90;;;;;;4976664;28;20488;-65
2021/01/10 15:28:25;;;;;;;13.93;11.77;;;3.20;99.90;;;;;;4976972;28;20441;-63
2021/01/10 15:30:52;;;;;;;14.30;11.73;;;3.20;99.90;;;;;;4977644;28;20444;-63
2021/01/10 15:33:18;;;;;;;13.93;11.90;;;2.90;99.90;;;;;;4979280;28;20550;-63
2021/01/10 15:35:46;;;;;;;15.40;12.70;;;2.70;99.90;;;;;;4978939;28;20471;-63
2021/01/10 15:38:14;;;;;;;15.60;12.80;;;2.40;99.90;;;;;;4978696;28;20525;-63
2021/01/10 15:40:41;;;;;;;14.17;11.63;;;2.50;99.90;;;;;;4978482;28;20497;-64
2021/01/10 15:43:07;;;;;;;16.80;12.63;;;2.40;99.90;;;;;;4977356;28;20466;-64
2021/01/10 15:45:35;;;;;;;17.60;12.57;;;2.30;99.90;;;;;;4977013;28;20649;-62
2021/01/10 15:48:02;;;;;;;16.07;12.30;;;2.20;99.90;;;;;;4977065;28;20858;-62
2021/01/10 15:50:28;;;;;;;21.53;12.87;;;2.10;99.90;;;;;;4976841;28;20450;-62
2021/01/10 15:52:55;;;;;;;17.00;12.60;;;2.10;99.90;;;;;;4976765;28;20477;-62
2021/01/10 15:55:21;;;;;;;18.93;12.90;;;2.00;99.90;;;;;;4976735;28;20470;-63
2021/01/10 15:57:47;;;;;;;21.27;11.90;;;1.90;99.90;;;;;;4976984;28;20432;-61
2021/01/10 16:00:15;;;;;;;19.00;13.60;;;1.90;99.90;;;;;;4977162;28;20465;-62
2021/01/10 16:02:42;;;;;;;24.20;15.57;;;2.10;99.90;;;;;;4976526;28;20459;-62
2021/01/10 16:05:11;;;;;;;36.30;20.30;;;2.60;99.90;;;;;;4976230;28;20478;-62
2021/01/10 16:07:37;;;;;;;26.65;17.80;;;2.20;99.90;;;;;;4976258;28;20815;-63
2021/01/10 16:10:04;;;;;;;27.95;18.85;;;2.30;99.90;;;;;;4976139;28;20457;-63
2021/01/10 16:12:31;;;;;;;37.00;24.17;;;2.30;99.90;;;;;;4975870;28;20502;-64
2021/01/10 16:14:58;;;;;;;38.23;27.40;;;2.20;99.90;;;;;;4976135;28;20472;-61
2021/01/10 16:17:26;;;;;;;45.10;29.77;;;2.10;99.90;;;;;;4976825;28;20470;-62
2021/01/10 16:19:53;;;;;;;43.83;27.30;;;2.00;99.90;;;;;;4976959;28;20444;-62
2021/01/10 16:22:19;;;;;;;44.73;25.83;;;1.90;99.90;;;;;;4975729;28;20460;-62
2021/01/10 16:24:45;;;;;;;41.17;22.43;;;1.80;99.90;;;;;;4976239;28;20466;-63
2021/01/10 16:27:18;;;;;;;49.10;23.53;;;1.70;99.90;;;;;;4976120;28;20474;-62
2021/01/10 16:29:44;;;;;;;50.13;22.43;;;1.70;99.90;;;;;;4975519;28;20567;-62
2021/01/10 16:32:12;;;;;;;35.80;19.70;;;1.50;99.90;;;;;;4975439;28;20455;-62
2021/01/10 16:34:38;;;;;;;24.43;16.80;;;1.50;99.90;;;;;;4975407;28;20478;-63
2021/01/10 16:37:05;;;;;;;20.77;14.77;;;1.30;99.90;;;;;;4975217;28;20462;-63
2021/01/10 16:39:31;;;;;;;18.27;13.50;;;1.30;99.90;;;;;;4975547;28;20454;-62
2021/01/10 16:41:58;;;;;;;16.73;13.50;;;1.20;99.90;;;;;;4975082;28;20454;-62
2021/01/10 16:44:24;;;;;;;18.43;13.93;;;1.20;99.90;;;;;;4975380;28;20478;-62
2021/01/10 16:46:50;;;;;;;18.43;13.87;;;1.20;99.90;;;;;;4976494;28;20470;-64
2021/01/10 16:49:16;;;;;;;19.20;13.53;;;1.20;99.90;;;;;;4979297;28;20466;-63
2021/01/10 16:51:47;;;;;;;19.25;13.85;;;1.00;99.90;;;;;;4974928;28;20949;-64
2021/01/10 16:54:19;;;;;;;16.70;12.13;;;1.00;99.90;;;;;;4975547;28;20479;-63
2021/01/10 16:56:47;;;;;;;15.20;12.47;;;0.90;99.90;;;;;;4975450;28;20798;-64
2021/01/10 16:59:14;;;;;;;15.80;12.50;;;1.00;99.90;;;;;;4976253;28;20505;-62
2021/01/10 17:01:44;;;;;;;16.00;12.80;;;1.00;99.90;;;;;;4975403;28;20829;-62
2021/01/10 17:04:10;;;;;;;17.63;13.53;;;1.00;99.90;;;;;;4976978;28;20475;-62
2021/01/10 17:06:36;;;;;;;21.60;14.73;;;0.90;99.90;;;;;;4977292;28;20470;-63
2021/01/10 17:09:04;;;;;;;17.70;13.20;;;0.90;99.90;;;;;;4977575;28;20443;-64
2021/01/10 17:11:36;;;;;;;18.20;13.67;;;0.90;99.90;;;;;;4977486;28;20459;-64
2021/01/10 17:14:03;;;;;;;17.90;12.40;;;0.90;99.90;;;;;;4978218;28;20911;-62
2021/01/10 17:16:29;;;;;;;14.97;11.30;;;0.90;99.90;;;;;;4976311;28;20536;-64
2021/01/10 17:18:55;;;;;;;16.37;12.80;;;0.90;99.90;;;;;;4975274;28;20953;-63
2021/01/10 17:21:21;;;;;;;17.53;11.70;;;0.90;99.90;;;;;;4975477;28;20497;-63
2021/01/10 17:23:48;;;;;;;13.55;11.25;;;0.90;99.90;;;;;;4975306;28;20449;-63
2021/01/10 17:26:14;;;;;;;14.80;12.15;;;0.90;99.90;;;;;;4974691;28;21147;-63
2021/01/10 17:28:41;;;;;;;15.60;11.77;;;0.90;99.90;;;;;;4975351;28;20200;-64
2021/01/10 17:31:07;;;;;;;16.20;12.40;;;0.90;99.90;;;;;;4975393;28;20482;-63
2021/01/10 17:33:33;;;;;;;16.50;12.47;;;1.00;99.90;;;;;;4975691;28;20534;-62
2021/01/10 17:36:00;;;;;;;15.90;13.10;;;0.90;99.90;;;;;;4975018;28;20459;-63
2021/01/10 17:38:26;;;;;;;15.73;12.00;;;1.00;99.90;;;;;;4975111;28;20822;-64
2021/01/10 17:40:52;;;;;;;14.30;11.47;;;0.90;99.90;;;;;;4975572;28;20466;-64
2021/01/10 17:43:19;;;;;;;15.80;11.37;;;0.90;99.90;;;;;;4974595;28;20923;-63
2021/01/10 17:45:46;;;;;;;16.40;12.30;;;0.90;99.90;;;;;;4974504;28;21008;-61
2021/01/10 17:48:12;;;;;;;14.57;11.33;;;0.90;99.90;;;;;;4974952;28;20463;-63